createdAt,value
2022-12-16T00:01:14.781Z,79.38
2022-12-16T00:03:44.246Z,79.34
2022-12-16T00:06:13.471Z,79.25
2022-12-16T00:08:41.449Z,78.16
2022-12-16T00:11:09.963Z,78.73
2022-12-16T00:13:40.338Z,78.52
2022-12-16T00:16:10.530Z,79.01
2022-12-16T00:18:38.609Z,78.97
2022-12-16T00:21:06.553Z,79.04
2022-12-16T00:23:36.773Z,79.20
2022-12-16T00:26:04.659Z,78.99
2022-12-16T00:28:32.991Z,79.21
2022-12-16T00:31:00.912Z,79.46
2022-12-16T00:33:29.318Z,78.92
2022-12-16T00:35:57.186Z,79.01
2022-12-16T00:38:27.174Z,78.91
2022-12-16T00:40:56.752Z,79.43
2022-12-16T00:43:24.643Z,79.00
2022-12-16T00:45:52.742Z,79.26
2022-12-16T00:48:22.934Z,78.96
2022-12-16T00:50:51.925Z,78.93
2022-12-16T00:53:20.177Z,78.99
2022-12-16T00:55:47.829Z,78.85
2022-12-16T00:58:16.989Z,78.85
2022-12-16T01:00:45.017Z,78.79
2022-12-16T01:03:17.941Z,79.06
2022-12-16T01:05:47.199Z,78.83
2022-12-16T01:08:14.837Z,79.18
2022-12-16T01:10:42.468Z,78.79
2022-12-16T01:13:10.219Z,78.29
2022-12-16T01:15:40.636Z,78.43
2022-12-16T01:18:08.387Z,78.73
2022-12-16T01:20:36.026Z,78.62
2022-12-16T01:23:03.622Z,79.10
2022-12-16T01:25:31.643Z,78.82
2022-12-16T01:27:59.290Z,78.64
2022-12-16T01:30:27.227Z,78.57
2022-12-16T01:32:56.212Z,78.71
2022-12-16T01:35:51.910Z,79.10
2022-12-16T01:38:11.426Z,78.67
2022-12-16T01:40:39.085Z,78.63
2022-12-16T01:43:12.628Z,78.64
2022-12-16T01:45:40.618Z,78.85
2022-12-16T01:48:20.799Z,78.05
2022-12-16T01:50:50.807Z,78.44
2022-12-16T01:53:18.552Z,78.52
2022-12-16T01:55:50.650Z,78.49
2022-12-16T01:58:23.392Z,79.14
2022-12-16T02:00:51.522Z,78.96
2022-12-16T02:03:21.387Z,78.90
2022-12-16T02:05:50.225Z,79.36
2022-12-16T02:08:19.912Z,78.96
2022-12-16T02:11:01.721Z,78.94
2022-12-16T02:13:40.119Z,79.47
2022-12-16T02:16:17.351Z,79.35
2022-12-16T02:18:56.400Z,79.13
2022-12-16T02:21:43.758Z,79.69
2022-12-16T02:24:44.719Z,79.14
2022-12-16T02:27:41.743Z,79.36
2022-12-16T02:30:25.703Z,79.15
2022-12-16T02:33:04.186Z,79.56
2022-12-16T02:35:40.954Z,79.00
2022-12-16T02:38:18.831Z,79.50
2022-12-16T02:40:53.025Z,79.35
2022-12-16T02:43:36.852Z,79.25
2022-12-16T02:46:08.236Z,79.21
2022-12-16T02:48:36.406Z,79.28
2022-12-16T02:51:04.162Z,79.36
2022-12-16T02:53:34.611Z,79.27
2022-12-16T02:56:12.535Z,79.69
2022-12-16T02:58:48.118Z,79.43
2022-12-16T03:01:25.571Z,79.32
2022-12-16T03:04:01.363Z,79.34
2022-12-16T03:06:31.632Z,79.13
2022-12-16T03:09:03.019Z,79.40
2022-12-16T03:11:32.415Z,79.85
2022-12-16T03:14:02.347Z,79.62
2022-12-16T03:16:33.709Z,79.73
2022-12-16T03:19:06.722Z,79.36
2022-12-16T03:21:39.561Z,79.18
2022-12-16T03:24:10.700Z,78.96
2022-12-16T03:26:44.435Z,79.07
2022-12-16T03:29:16.384Z,79.09
2022-12-16T03:31:52.062Z,78.67
2022-12-16T03:34:28.004Z,78.30
2022-12-16T03:37:01.405Z,78.40
2022-12-16T03:39:30.065Z,78.61
2022-12-16T03:41:58.413Z,78.01
2022-12-16T03:44:26.337Z,77.81
2022-12-16T03:46:55.292Z,77.76
2022-12-16T03:49:23.638Z,78.11
2022-12-16T03:51:51.279Z,77.51
2022-12-16T03:54:19.199Z,77.49
2022-12-16T03:56:47.649Z,77.97
2022-12-16T03:59:15.328Z,78.46
2022-12-16T04:01:43.754Z,78.41
2022-12-16T04:04:13.488Z,78.10
2022-12-16T04:06:41.221Z,77.97
2022-12-16T04:09:09.080Z,78.25
2022-12-16T04:11:54.312Z,78.13
2022-12-16T04:14:39.589Z,77.78
2022-12-16T04:17:24.871Z,78.13
2022-12-16T04:20:11.606Z,77.94
2022-12-16T04:22:59.459Z,77.51
2022-12-16T04:25:32.685Z,77.96
2022-12-16T04:28:00.785Z,76.28
2022-12-16T04:30:30.012Z,75.60
2022-12-16T04:33:18.071Z,74.08
2022-12-16T04:36:04.721Z,74.60
2022-12-16T04:38:50.000Z,75.07
2022-12-16T04:41:35.297Z,75.17
2022-12-16T04:44:21.165Z,76.00
2022-12-16T04:47:06.925Z,76.29
2022-12-16T04:50:00.759Z,76.20
2022-12-16T04:52:47.310Z,75.55
2022-12-16T04:55:32.578Z,75.18
2022-12-16T04:58:19.711Z,74.93
2022-12-16T05:01:06.105Z,75.30
2022-12-16T05:03:51.858Z,75.58
2022-12-16T05:06:37.794Z,75.20
2022-12-16T05:09:25.889Z,75.38
2022-12-16T05:12:11.176Z,75.26
2022-12-16T05:14:56.478Z,74.05
2022-12-16T05:17:41.675Z,74.02
2022-12-16T05:20:26.925Z,74.34
2022-12-16T05:23:14.487Z,74.66
2022-12-16T05:26:01.137Z,75.24
2022-12-16T05:28:46.890Z,75.40
2022-12-16T05:31:32.283Z,75.30
2022-12-16T05:34:17.437Z,75.71
2022-12-16T05:37:02.767Z,76.13
2022-12-16T05:39:48.041Z,76.34
2022-12-16T05:42:34.778Z,76.13
2022-12-16T05:45:20.070Z,75.34
2022-12-16T05:48:07.374Z,74.95
2022-12-16T05:50:57.946Z,75.02
2022-12-16T05:53:43.356Z,75.14
2022-12-16T05:56:28.540Z,75.34
2022-12-16T05:59:16.650Z,74.98
2022-12-16T06:02:07.386Z,74.99
2022-12-16T06:04:52.712Z,75.50
2022-12-16T06:07:37.956Z,75.35
2022-12-16T06:10:23.953Z,75.66
2022-12-16T06:13:09.344Z,74.69
2022-12-16T06:15:56.004Z,74.98
2022-12-16T06:18:41.385Z,75.03
2022-12-16T06:21:26.884Z,75.22
2022-12-16T06:24:12.158Z,75.80
2022-12-16T06:26:57.455Z,75.85
2022-12-16T06:29:42.657Z,75.03
2022-12-16T06:32:40.771Z,75.19
2022-12-16T06:35:26.881Z,75.42
2022-12-16T06:38:12.885Z,75.83
2022-12-16T06:40:57.983Z,75.36
2022-12-16T06:43:56.376Z,74.59
2022-12-16T06:46:41.689Z,74.57
2022-12-16T06:49:28.263Z,74.75
2022-12-16T06:52:13.606Z,74.17
2022-12-16T06:54:59.046Z,73.65
2022-12-16T06:57:44.425Z,73.74
2022-12-16T07:00:30.777Z,72.31
2022-12-16T07:06:49.521Z,71.75
2022-12-16T07:09:35.494Z,73.37
2022-12-16T07:12:20.083Z,74.11
2022-12-16T07:15:05.360Z,73.51
2022-12-16T07:17:50.742Z,73.51
2022-12-16T07:20:36.027Z,73.91
2022-12-16T07:23:22.579Z,73.17
2022-12-16T07:26:08.561Z,72.47
2022-12-16T07:29:08.344Z,73.15
2022-12-16T07:31:56.545Z,73.03
2022-12-16T07:34:47.162Z,73.69
2022-12-16T07:37:35.208Z,73.57
2022-12-16T07:40:22.315Z,74.43
2022-12-16T07:43:09.019Z,73.40
2022-12-16T07:45:54.825Z,73.29
2022-12-16T07:48:43.427Z,73.39
2022-12-16T07:51:28.837Z,73.90
2022-12-16T07:54:14.144Z,74.68
2022-12-16T07:57:00.674Z,73.67
2022-12-16T07:59:46.723Z,72.53
2022-12-16T08:02:35.352Z,73.13
2022-12-16T08:05:20.917Z,72.92
2022-12-16T08:08:06.271Z,72.14
2022-12-16T08:10:51.431Z,71.49
2022-12-16T08:13:37.581Z,72.02
2022-12-16T08:16:23.226Z,72.09
2022-12-16T08:19:11.221Z,72.32
2022-12-16T08:21:56.657Z,72.11
2022-12-16T08:24:56.481Z,72.50
2022-12-16T08:27:41.840Z,71.67
2022-12-16T08:30:29.384Z,72.50
2022-12-16T08:33:19.321Z,72.82
2022-12-16T08:36:05.284Z,73.38
2022-12-16T08:38:52.960Z,74.52
2022-12-16T08:41:38.255Z,75.24
2022-12-16T08:44:23.639Z,75.41
2022-12-16T08:47:10.145Z,74.69
2022-12-16T08:49:57.886Z,74.53
2022-12-16T08:52:54.548Z,73.67
2022-12-16T08:55:39.910Z,73.95
2022-12-16T08:58:25.248Z,72.82
2022-12-16T09:01:27.753Z,73.42
2022-12-16T09:04:10.871Z,73.65
2022-12-16T09:06:55.968Z,73.70
2022-12-16T09:09:41.384Z,73.57
2022-12-16T09:12:26.569Z,73.21
2022-12-16T09:15:12.142Z,72.65
2022-12-16T09:18:12.833Z,72.59
2022-12-16T09:21:02.085Z,72.18
2022-12-16T09:23:47.119Z,72.83
2022-12-16T09:26:32.621Z,72.71
2022-12-16T09:29:17.705Z,73.62
2022-12-16T09:32:02.965Z,72.79
2022-12-16T09:34:48.547Z,71.95
2022-12-16T09:37:35.120Z,72.05
2022-12-16T09:40:19.780Z,71.88
2022-12-16T09:43:09.464Z,72.07
2022-12-16T09:46:03.874Z,72.24
2022-12-16T09:48:59.551Z,72.43
2022-12-16T09:51:45.388Z,72.65
2022-12-16T09:54:35.875Z,71.69
2022-12-16T09:57:22.632Z,72.14
2022-12-16T10:00:14.014Z,71.92
2022-12-16T10:03:06.542Z,72.11
2022-12-16T10:06:03.088Z,73.41
2022-12-16T10:09:00.113Z,73.79
2022-12-16T10:11:57.427Z,73.53
2022-12-16T10:14:50.233Z,73.21
2022-12-16T10:17:41.699Z,73.31
2022-12-16T10:20:35.260Z,72.73
2022-12-16T10:23:24.811Z,73.43
2022-12-16T10:26:15.100Z,72.36
2022-12-16T10:29:05.119Z,73.69
2022-12-16T10:31:51.582Z,73.07
2022-12-16T10:34:39.195Z,72.94
2022-12-16T10:37:24.363Z,73.47
2022-12-16T10:40:14.770Z,73.79
2022-12-16T10:43:06.644Z,74.27
2022-12-16T10:45:59.265Z,73.94
2022-12-16T10:48:55.143Z,74.18
2022-12-16T10:51:43.425Z,72.93
2022-12-16T10:54:50.296Z,73.66
2022-12-16T10:57:48.868Z,74.50
2022-12-16T11:00:36.674Z,74.83
2022-12-16T11:03:38.221Z,74.56
2022-12-16T11:06:24.919Z,74.57
2022-12-16T11:09:10.161Z,73.42
2022-12-16T11:11:55.714Z,73.34
2022-12-16T11:15:05.650Z,72.43
2022-12-16T11:17:47.889Z,71.96
2022-12-16T11:20:36.323Z,72.59
2022-12-16T11:23:48.523Z,72.47
2022-12-16T11:26:38.487Z,72.41
2022-12-16T11:29:31.916Z,73.57
2022-12-16T11:32:21.280Z,72.58
2022-12-16T11:35:12.051Z,72.46
2022-12-16T11:38:04.379Z,72.64
2022-12-16T11:40:51.188Z,73.48
2022-12-16T11:43:37.966Z,73.43
2022-12-16T11:46:28.441Z,73.97
2022-12-16T11:49:23.415Z,73.17
2022-12-16T11:52:35.840Z,72.96
2022-12-16T11:56:03.634Z,72.95
2022-12-16T11:58:44.058Z,73.12
2022-12-16T12:01:33.451Z,72.92
2022-12-16T12:04:18.621Z,72.79
2022-12-16T12:07:24.185Z,71.92
2022-12-16T12:10:19.234Z,71.63
2022-12-16T12:13:14.749Z,72.25
2022-12-16T12:16:08.197Z,72.52
2022-12-16T12:19:18.348Z,73.48
2022-12-16T12:22:10.919Z,73.19
2022-12-16T12:25:04.829Z,73.20
2022-12-16T12:27:57.319Z,72.99
2022-12-16T12:30:43.867Z,72.05
2022-12-16T12:33:46.456Z,71.81
2022-12-16T12:36:38.270Z,71.76
2022-12-16T12:39:35.604Z,71.41
2022-12-16T12:42:35.523Z,72.35
2022-12-16T12:45:36.738Z,72.06
2022-12-16T12:48:29.972Z,71.22
2022-12-16T12:51:23.495Z,70.45
2022-12-16T12:54:18.959Z,71.74
2022-12-16T12:57:07.508Z,71.49
2022-12-16T13:00:12.285Z,72.00
2022-12-16T13:03:05.438Z,71.26
2022-12-16T13:05:55.517Z,71.36
2022-12-16T13:09:04.857Z,71.73
2022-12-16T13:11:50.040Z,71.85
2022-12-16T13:15:12.059Z,72.77
2022-12-16T13:18:45.787Z,72.92
2022-12-16T13:22:02.883Z,72.85
2022-12-16T13:25:09.276Z,73.03
2022-12-16T13:28:08.779Z,72.97
2022-12-16T13:30:54.068Z,73.68
2022-12-16T13:33:57.413Z,73.40
2022-12-16T13:36:53.338Z,73.90
2022-12-16T13:39:48.566Z,74.19
2022-12-16T13:43:08.953Z,73.87
2022-12-16T13:45:56.792Z,74.06
2022-12-16T13:48:51.004Z,73.79
2022-12-16T13:52:24.527Z,72.96
2022-12-16T13:55:33.388Z,72.01
2022-12-16T13:58:23.719Z,71.83
2022-12-16T14:01:22.921Z,71.78
2022-12-16T14:04:11.067Z,71.36
2022-12-16T14:06:58.376Z,72.16
2022-12-16T14:09:50.783Z,72.02
2022-12-16T14:12:55.695Z,72.92
2022-12-16T14:15:46.343Z,71.46
2022-12-16T14:18:43.909Z,71.78
2022-12-16T14:21:35.547Z,71.55
2022-12-16T14:24:25.924Z,71.48
2022-12-16T14:27:11.273Z,72.07
2022-12-16T14:30:01.946Z,72.58
2022-12-16T14:32:48.793Z,72.85
2022-12-16T14:35:36.803Z,72.93
2022-12-16T14:38:40.072Z,71.48
2022-12-16T14:41:29.563Z,71.86
2022-12-16T14:44:14.765Z,71.58
2022-12-16T14:47:01.511Z,71.74
2022-12-16T14:49:48.283Z,71.69
2022-12-16T14:52:46.184Z,72.12
2022-12-16T14:55:35.049Z,71.56
2022-12-16T14:58:22.727Z,71.70
2022-12-16T15:01:13.787Z,71.96
2022-12-16T15:04:04.428Z,71.80
2022-12-16T15:06:54.929Z,73.37
2022-12-16T15:09:44.332Z,73.17
2022-12-16T15:12:31.797Z,72.84
2022-12-16T15:15:17.994Z,72.43
2022-12-16T15:18:08.288Z,72.18
2022-12-16T15:20:56.879Z,72.35
2022-12-16T15:23:45.328Z,71.94
2022-12-16T15:26:36.244Z,71.34
2022-12-16T15:29:21.502Z,70.85
2022-12-16T15:32:06.850Z,71.04
2022-12-16T15:35:03.524Z,70.92
2022-12-16T15:38:00.656Z,71.15
2022-12-16T15:40:51.551Z,72.12
2022-12-16T15:43:41.892Z,72.40
2022-12-16T15:46:36.421Z,72.00
2022-12-16T15:49:21.899Z,71.81
2022-12-16T15:52:09.308Z,71.61
2022-12-16T15:55:10.692Z,72.17
2022-12-16T15:57:56.958Z,72.91
2022-12-16T16:00:45.057Z,72.44
2022-12-16T16:03:42.653Z,71.95
2022-12-16T16:06:41.863Z,71.77
2022-12-16T16:09:32.125Z,72.58
2022-12-16T16:12:18.652Z,72.53
2022-12-16T16:15:04.055Z,71.73
2022-12-16T16:18:03.999Z,71.57
2022-12-16T16:20:49.079Z,72.67
2022-12-16T16:23:34.751Z,72.59
2022-12-16T16:26:20.355Z,73.20
2022-12-16T16:29:07.009Z,73.86
2022-12-16T16:31:51.499Z,74.06
2022-12-16T16:34:36.835Z,73.35
2022-12-16T16:37:22.286Z,73.30
2022-12-16T16:40:22.138Z,73.25
2022-12-16T16:43:07.551Z,73.29
2022-12-16T16:45:53.333Z,73.03
2022-12-16T16:48:38.635Z,74.26
2022-12-16T16:51:23.925Z,74.38
2022-12-16T16:54:09.283Z,73.55
2022-12-16T16:56:56.047Z,73.63
2022-12-16T16:59:42.794Z,73.46
2022-12-16T17:02:40.415Z,73.07
2022-12-16T17:05:26.941Z,72.75
2022-12-16T17:08:12.332Z,73.27
2022-12-16T17:10:57.626Z,73.09
2022-12-16T17:13:42.838Z,73.78
2022-12-16T17:16:29.410Z,73.22
2022-12-16T17:19:15.887Z,73.38
2022-12-16T17:22:01.164Z,73.61
2022-12-16T17:24:49.272Z,73.38
2022-12-16T17:27:38.809Z,72.70
2022-12-16T17:30:31.111Z,72.85
2022-12-16T17:33:16.330Z,73.28
2022-12-16T17:36:02.931Z,73.43
2022-12-16T17:38:48.248Z,74.15
2022-12-16T17:41:33.596Z,74.01
2022-12-16T17:44:18.968Z,74.76
2022-12-16T17:47:04.392Z,74.80
2022-12-16T17:49:49.492Z,74.98
2022-12-16T17:52:36.156Z,74.95
2022-12-16T17:55:21.508Z,75.14
2022-12-16T17:58:06.985Z,74.98
2022-12-16T18:00:52.225Z,75.54
2022-12-16T18:03:38.045Z,75.91
2022-12-16T18:06:24.191Z,75.81
2022-12-16T18:09:10.793Z,75.69
2022-12-16T18:11:56.086Z,75.47
2022-12-16T18:14:43.648Z,75.36
2022-12-16T18:17:28.872Z,75.65
2022-12-16T18:20:22.641Z,75.64
2022-12-16T18:23:11.005Z,75.66
2022-12-16T18:25:57.767Z,75.67
2022-12-16T18:28:42.994Z,75.83
2022-12-16T18:31:28.502Z,76.28
2022-12-16T18:34:13.791Z,76.25
2022-12-16T18:36:59.140Z,75.64
2022-12-16T18:39:44.442Z,75.73
2022-12-16T18:42:30.972Z,75.11
2022-12-16T18:45:16.381Z,75.55
2022-12-16T18:48:01.670Z,75.68
2022-12-16T18:50:46.932Z,75.57
2022-12-16T18:53:32.794Z,75.34
2022-12-16T18:56:19.590Z,75.26
2022-12-16T18:59:06.163Z,75.15
2022-12-16T19:01:53.742Z,75.54
2022-12-16T19:04:39.128Z,75.52
2022-12-16T19:07:24.520Z,75.78
2022-12-16T19:10:12.446Z,75.19
2022-12-16T19:12:57.769Z,75.54
2022-12-16T19:15:44.454Z,75.52
2022-12-16T19:18:30.290Z,75.69
2022-12-16T19:21:15.940Z,75.56
2022-12-16T19:24:01.770Z,74.53
2022-12-16T19:26:47.038Z,74.38
2022-12-16T19:29:32.597Z,74.91
2022-12-16T19:32:19.322Z,74.22
2022-12-16T19:35:04.315Z,75.06
2022-12-16T19:37:49.780Z,75.22
2022-12-16T19:40:34.962Z,75.60
2022-12-16T19:43:20.226Z,75.40
2022-12-16T19:46:11.102Z,75.67
2022-12-16T19:48:57.898Z,75.78
2022-12-16T19:51:43.220Z,75.10
2022-12-16T19:54:28.594Z,73.83
2022-12-16T19:57:13.857Z,74.69
2022-12-16T19:59:59.235Z,74.20
2022-12-16T20:02:44.515Z,74.46
2022-12-16T20:05:31.152Z,74.35
2022-12-16T20:08:16.480Z,74.61
2022-12-16T20:11:01.766Z,74.66
2022-12-16T20:13:47.183Z,74.08
2022-12-16T20:16:32.395Z,74.31
2022-12-16T20:19:17.752Z,74.35
2022-12-16T20:25:09.492Z,74.32
2022-12-16T20:27:55.036Z,73.41
2022-12-16T20:30:44.696Z,73.82
2022-12-16T20:33:37.290Z,73.34
2022-12-16T20:36:23.528Z,74.08
2022-12-16T20:39:10.036Z,74.17
2022-12-16T20:41:55.953Z,73.94
2022-12-16T20:44:41.702Z,74.09
2022-12-16T20:47:27.098Z,74.20
2022-12-16T20:50:12.440Z,74.82
2022-12-16T20:52:57.765Z,75.24
2022-12-16T20:55:44.472Z,74.36
2022-12-16T20:58:29.790Z,74.35
2022-12-16T21:01:15.532Z,75.12
2022-12-16T21:04:01.073Z,74.66
2022-12-16T21:06:46.352Z,75.03
2022-12-16T21:09:31.686Z,74.67
2022-12-16T21:12:18.229Z,74.59
2022-12-16T21:14:42.314Z,73.66
2022-12-16T21:15:03.607Z,73.82
2022-12-16T21:17:48.883Z,73.59
2022-12-16T21:20:33.344Z,74.19
2022-12-16T21:23:21.044Z,73.34
2022-12-16T21:26:06.271Z,72.75
2022-12-16T21:28:58.216Z,72.93
2022-12-16T21:31:43.682Z,72.36
2022-12-16T21:34:28.963Z,73.15
2022-12-16T21:37:14.300Z,72.01
2022-12-16T21:39:59.655Z,72.47
2022-12-16T21:42:44.939Z,71.91
2022-12-16T21:45:31.614Z,73.21
2022-12-16T21:48:17.095Z,73.16
2022-12-16T21:51:02.422Z,72.69
2022-12-16T21:53:48.235Z,73.24
2022-12-16T21:56:36.114Z,72.88
2022-12-16T21:59:21.467Z,72.63
2022-12-16T22:02:08.104Z,72.67
2022-12-16T22:04:53.487Z,72.78
2022-12-16T22:07:38.739Z,72.84
2022-12-16T22:10:24.639Z,71.89
2022-12-16T22:13:09.992Z,72.64
2022-12-16T22:15:59.433Z,73.06
2022-12-16T22:18:45.344Z,73.17
2022-12-16T22:21:30.262Z,72.51
2022-12-16T22:24:21.644Z,72.20
2022-12-16T22:27:20.337Z,71.58
2022-12-16T22:30:12.281Z,71.72
2022-12-16T22:33:24.025Z,72.70
2022-12-16T22:36:33.858Z,72.82
2022-12-16T22:39:19.255Z,73.08
2022-12-16T22:42:04.530Z,73.75
2022-12-16T22:44:49.878Z,73.92
2022-12-16T22:47:35.457Z,73.97
2022-12-16T22:50:20.836Z,73.54
2022-12-16T22:53:07.424Z,72.13
2022-12-16T22:56:00.135Z,71.59
2022-12-16T22:58:46.922Z,70.78
2022-12-16T23:01:32.361Z,69.94
2022-12-16T23:04:17.753Z,69.90
2022-12-16T23:07:02.840Z,70.16
2022-12-16T23:09:49.554Z,71.44
2022-12-16T23:12:34.822Z,70.47
2022-12-16T23:15:20.235Z,70.79
2022-12-16T23:18:05.554Z,71.17
2022-12-16T23:20:51.039Z,70.19
2022-12-16T23:23:37.545Z,71.38
2022-12-16T23:26:24.168Z,70.05
2022-12-16T23:29:10.165Z,70.30
2022-12-16T23:31:56.631Z,70.51
2022-12-16T23:34:46.526Z,70.58
2022-12-16T23:37:31.766Z,69.69
2022-12-16T23:40:17.247Z,69.99
2022-12-16T23:43:05.384Z,70.12
2022-12-16T23:45:59.109Z,69.83
2022-12-16T23:48:44.599Z,69.05
2022-12-16T23:51:29.927Z,69.19
2022-12-16T23:54:11.700Z,69.25
2022-12-16T23:56:57.077Z,68.96
2022-12-16T23:59:43.572Z,69.44
